sensor_id;sensor_type;location;lat;lon;timestamp;temperature;humidity
30206;DHT22;17010;51.306;3.150;2023-03-26T00:01:00;9.50;99.90
30206;DHT22;17010;51.306;3.150;2023-03-26T00:03:26;9.60;99.90
30206;DHT22;17010;51.306;3.150;2023-03-26T00:06:02;9.60;99.90
30206;DHT22;17010;51.306;3.150;2023-03-26T00:08:29;9.60;99.90
30206;DHT22;17010;51.306;3.150;2023-03-26T00:10:55;9.60;99.90
30206;DHT22;17010;51.306;3.150;2023-03-26T00:13:22;9.70;99.90
30206;DHT22;17010;51.306;3.150;2023-03-26T00:15:48;9.70;99.90
30206;DHT22;17010;51.306;3.150;2023-03-26T00:18:14;9.70;99.90
30206;DHT22;17010;51.306;3.150;2023-03-26T00:20:40;9.80;99.90
30206;DHT22;17010;51.306;3.150;2023-03-26T00:23:07;9.80;99.90
30206;DHT22;17010;51.306;3.150;2023-03-26T00:25:36;9.80;99.90
30206;DHT22;17010;51.306;3.150;2023-03-26T00:28:04;9.90;99.90
30206;DHT22;17010;51.306;3.150;2023-03-26T00:30:33;9.90;99.90
30206;DHT22;17010;51.306;3.150;2023-03-26T00:33:01;9.90;99.90
30206;DHT22;17010;51.306;3.150;2023-03-26T00:35:27;9.90;99.90
30206;DHT22;17010;51.306;3.150;2023-03-26T00:37:56;10.00;99.90
30206;DHT22;17010;51.306;3.150;2023-03-26T00:40:23;10.00;99.90
30206;DHT22;17010;51.306;3.150;2023-03-26T00:42:49;10.00;99.90
30206;DHT22;17010;51.306;3.150;2023-03-26T00:45:16;10.00;99.90
30206;DHT22;17010;51.306;3.150;2023-03-26T00:47:46;10.00;99.90
30206;DHT22;17010;51.306;3.150;2023-03-26T00:50:15;10.00;99.90
30206;DHT22;17010;51.306;3.150;2023-03-26T00:52:43;10.00;99.90
30206;DHT22;17010;51.306;3.150;2023-03-26T00:55:10;9.90;99.90
30206;DHT22;17010;51.306;3.150;2023-03-26T00:57:36;10.00;99.90
30206;DHT22;17010;51.306;3.150;2023-03-26T01:00:14;9.90;99.90
30206;DHT22;17010;51.306;3.150;2023-03-26T01:02:41;9.90;99.90
30206;DHT22;17010;51.306;3.150;2023-03-26T01:10:42;9.90;99.90
30206;DHT22;17010;51.306;3.150;2023-03-26T01:13:09;9.90;99.90
30206;DHT22;17010;51.306;3.150;2023-03-26T01:15:35;9.80;99.90
30206;DHT22;17010;51.306;3.150;2023-03-26T01:18:05;9.80;99.90
30206;DHT22;17010;51.306;3.150;2023-03-26T01:20:35;9.80;99.90
30206;DHT22;17010;51.306;3.150;2023-03-26T01:23:12;9.70;99.90
30206;DHT22;17010;51.306;3.150;2023-03-26T01:25:43;9.70;99.90
30206;DHT22;17010;51.306;3.150;2023-03-26T01:28:14;9.60;99.90
30206;DHT22;17010;51.306;3.150;2023-03-26T01:31:00;9.50;99.90
30206;DHT22;17010;51.306;3.150;2023-03-26T01:37:12;9.50;99.90
30206;DHT22;17010;51.306;3.150;2023-03-26T01:39:58;9.50;99.90
30206;DHT22;17010;51.306;3.150;2023-03-26T01:42:34;9.50;99.90
30206;DHT22;17010;51.306;3.150;2023-03-26T01:45:21;9.50;99.90
30206;DHT22;17010;51.306;3.150;2023-03-26T01:47:50;9.50;99.90
30206;DHT22;17010;51.306;3.150;2023-03-26T01:50:17;9.60;99.90
30206;DHT22;17010;51.306;3.150;2023-03-26T01:52:43;9.60;99.90
30206;DHT22;17010;51.306;3.150;2023-03-26T01:55:10;9.70;99.90
30206;DHT22;17010;51.306;3.150;2023-03-26T01:57:51;9.70;99.90
30206;DHT22;17010;51.306;3.150;2023-03-26T02:00:28;9.60;99.90
30206;DHT22;17010;51.306;3.150;2023-03-26T02:06:21;9.60;99.90
30206;DHT22;17010;51.306;3.150;2023-03-26T02:08:52;9.60;99.90
30206;DHT22;17010;51.306;3.150;2023-03-26T02:11:20;9.60;99.90
30206;DHT22;17010;51.306;3.150;2023-03-26T02:13:46;9.50;99.90
30206;DHT22;17010;51.306;3.150;2023-03-26T02:16:15;9.50;99.90
30206;DHT22;17010;51.306;3.150;2023-03-26T02:18:42;9.50;99.90
30206;DHT22;17010;51.306;3.150;2023-03-26T02:21:13;9.50;99.90
30206;DHT22;17010;51.306;3.150;2023-03-26T02:23:40;9.50;99.90
30206;DHT22;17010;51.306;3.150;2023-03-26T02:26:08;9.60;99.90
30206;DHT22;17010;51.306;3.150;2023-03-26T02:28:35;9.50;99.90
30206;DHT22;17010;51.306;3.150;2023-03-26T02:31:02;9.50;99.90
30206;DHT22;17010;51.306;3.150;2023-03-26T02:33:29;9.40;99.90
30206;DHT22;17010;51.306;3.150;2023-03-26T02:35:57;9.50;99.90
30206;DHT22;17010;51.306;3.150;2023-03-26T02:38:25;9.40;99.90
30206;DHT22;17010;51.306;3.150;2023-03-26T02:40:53;9.40;99.90
30206;DHT22;17010;51.306;3.150;2023-03-26T02:43:19;9.40;99.90
30206;DHT22;17010;51.306;3.150;2023-03-26T02:45:46;9.40;99.90
30206;DHT22;17010;51.306;3.150;2023-03-26T02:48:12;9.30;99.90
30206;DHT22;17010;51.306;3.150;2023-03-26T02:50:40;9.30;99.90
30206;DHT22;17010;51.306;3.150;2023-03-26T02:53:06;9.30;99.90
30206;DHT22;17010;51.306;3.150;2023-03-26T02:55:33;9.30;99.90
30206;DHT22;17010;51.306;3.150;2023-03-26T02:57:59;9.30;99.90
30206;DHT22;17010;51.306;3.150;2023-03-26T03:00:25;9.30;99.90
30206;DHT22;17010;51.306;3.150;2023-03-26T03:02:52;9.30;99.90
30206;DHT22;17010;51.306;3.150;2023-03-26T03:05:19;9.30;99.90
30206;DHT22;17010;51.306;3.150;2023-03-26T03:07:45;9.20;99.90
30206;DHT22;17010;51.306;3.150;2023-03-26T03:10:12;9.10;99.90
30206;DHT22;17010;51.306;3.150;2023-03-26T03:12:40;9.10;99.90
30206;DHT22;17010;51.306;3.150;2023-03-26T03:15:07;9.10;99.90
30206;DHT22;17010;51.306;3.150;2023-03-26T03:17:34;9.10;99.90
30206;DHT22;17010;51.306;3.150;2023-03-26T03:20:00;9.10;99.90
30206;DHT22;17010;51.306;3.150;2023-03-26T03:22:26;9.20;99.90
30206;DHT22;17010;51.306;3.150;2023-03-26T03:24:52;9.10;99.90
30206;DHT22;17010;51.306;3.150;2023-03-26T03:27:22;9.10;99.90
30206;DHT22;17010;51.306;3.150;2023-03-26T03:29:51;9.10;99.90
30206;DHT22;17010;51.306;3.150;2023-03-26T03:32:22;9.10;99.90
30206;DHT22;17010;51.306;3.150;2023-03-26T03:34:48;9.10;99.90
30206;DHT22;17010;51.306;3.150;2023-03-26T03:37:16;9.10;99.90
30206;DHT22;17010;51.306;3.150;2023-03-26T03:39:43;9.10;99.90
30206;DHT22;17010;51.306;3.150;2023-03-26T03:42:09;9.10;99.90
30206;DHT22;17010;51.306;3.150;2023-03-26T03:44:36;9.10;99.90
30206;DHT22;17010;51.306;3.150;2023-03-26T03:47:02;9.10;99.90
30206;DHT22;17010;51.306;3.150;2023-03-26T03:49:28;9.10;99.90
30206;DHT22;17010;51.306;3.150;2023-03-26T03:51:55;9.10;99.90
30206;DHT22;17010;51.306;3.150;2023-03-26T03:54:22;9.10;99.90
30206;DHT22;17010;51.306;3.150;2023-03-26T03:56:48;9.10;99.90
30206;DHT22;17010;51.306;3.150;2023-03-26T03:59:14;9.10;99.90
30206;DHT22;17010;51.306;3.150;2023-03-26T04:01:40;9.10;99.90
30206;DHT22;17010;51.306;3.150;2023-03-26T04:04:13;9.10;99.90
30206;DHT22;17010;51.306;3.150;2023-03-26T04:06:39;9.00;99.90
30206;DHT22;17010;51.306;3.150;2023-03-26T04:09:06;9.10;99.90
30206;DHT22;17010;51.306;3.150;2023-03-26T04:11:32;9.10;99.90
30206;DHT22;17010;51.306;3.150;2023-03-26T04:13:58;9.10;99.90
30206;DHT22;17010;51.306;3.150;2023-03-26T04:16:24;9.10;99.90
30206;DHT22;17010;51.306;3.150;2023-03-26T04:18:51;9.10;99.90
30206;DHT22;17010;51.306;3.150;2023-03-26T04:21:17;9.10;99.90
30206;DHT22;17010;51.306;3.150;2023-03-26T04:23:44;9.10;99.90
30206;DHT22;17010;51.306;3.150;2023-03-26T04:26:14;9.00;99.90
30206;DHT22;17010;51.306;3.150;2023-03-26T04:28:49;9.00;99.90
30206;DHT22;17010;51.306;3.150;2023-03-26T04:31:19;8.90;99.90
30206;DHT22;17010;51.306;3.150;2023-03-26T04:34:39;9.00;99.90
30206;DHT22;17010;51.306;3.150;2023-03-26T04:36:41;9.00;99.90
30206;DHT22;17010;51.306;3.150;2023-03-26T04:39:09;9.00;99.90
30206;DHT22;17010;51.306;3.150;2023-03-26T04:41:36;9.10;99.90
30206;DHT22;17010;51.306;3.150;2023-03-26T04:44:03;9.00;99.90
30206;DHT22;17010;51.306;3.150;2023-03-26T04:46:36;9.00;99.90
30206;DHT22;17010;51.306;3.150;2023-03-26T04:49:03;9.00;99.90
30206;DHT22;17010;51.306;3.150;2023-03-26T04:51:34;9.00;99.90
30206;DHT22;17010;51.306;3.150;2023-03-26T04:54:04;9.10;99.90
30206;DHT22;17010;51.306;3.150;2023-03-26T04:56:56;9.00;99.90
30206;DHT22;17010;51.306;3.150;2023-03-26T04:59:29;9.00;99.90
30206;DHT22;17010;51.306;3.150;2023-03-26T05:02:00;9.00;99.90
30206;DHT22;17010;51.306;3.150;2023-03-26T05:04:27;9.00;99.90
30206;DHT22;17010;51.306;3.150;2023-03-26T05:06:59;9.00;99.90
30206;DHT22;17010;51.306;3.150;2023-03-26T05:09:26;9.10;99.90
30206;DHT22;17010;51.306;3.150;2023-03-26T05:11:53;9.00;99.90
30206;DHT22;17010;51.306;3.150;2023-03-26T05:14:19;9.00;99.90
30206;DHT22;17010;51.306;3.150;2023-03-26T05:16:46;8.90;99.90
30206;DHT22;17010;51.306;3.150;2023-03-26T05:19:13;8.90;99.90
30206;DHT22;17010;51.306;3.150;2023-03-26T05:21:39;8.90;99.90
30206;DHT22;17010;51.306;3.150;2023-03-26T05:24:06;8.90;99.90
30206;DHT22;17010;51.306;3.150;2023-03-26T05:26:33;8.90;99.90
30206;DHT22;17010;51.306;3.150;2023-03-26T05:28:59;8.90;99.90
30206;DHT22;17010;51.306;3.150;2023-03-26T05:31:28;8.90;99.90
30206;DHT22;17010;51.306;3.150;2023-03-26T05:33:57;8.90;99.90
30206;DHT22;17010;51.306;3.150;2023-03-26T05:36:25;8.90;99.90
30206;DHT22;17010;51.306;3.150;2023-03-26T05:38:53;9.00;99.90
30206;DHT22;17010;51.306;3.150;2023-03-26T05:41:19;9.10;99.90
30206;DHT22;17010;51.306;3.150;2023-03-26T05:43:45;9.00;99.90
30206;DHT22;17010;51.306;3.150;2023-03-26T05:46:13;9.00;99.90
30206;DHT22;17010;51.306;3.150;2023-03-26T05:48:40;9.00;99.90
30206;DHT22;17010;51.306;3.150;2023-03-26T05:51:06;9.00;99.90
30206;DHT22;17010;51.306;3.150;2023-03-26T05:53:33;8.90;99.90
30206;DHT22;17010;51.306;3.150;2023-03-26T05:55:59;8.90;99.90
30206;DHT22;17010;51.306;3.150;2023-03-26T05:58:28;9.00;99.90
30206;DHT22;17010;51.306;3.150;2023-03-26T06:01:10;9.00;99.90
30206;DHT22;17010;51.306;3.150;2023-03-26T06:03:43;9.00;99.90
30206;DHT22;17010;51.306;3.150;2023-03-26T06:06:11;9.00;99.90
30206;DHT22;17010;51.306;3.150;2023-03-26T06:08:42;8.90;99.90
30206;DHT22;17010;51.306;3.150;2023-03-26T06:11:09;8.90;99.90
30206;DHT22;17010;51.306;3.150;2023-03-26T06:13:38;9.00;99.90
30206;DHT22;17010;51.306;3.150;2023-03-26T06:16:05;9.00;99.90
30206;DHT22;17010;51.306;3.150;2023-03-26T06:18:31;9.00;99.90
30206;DHT22;17010;51.306;3.150;2023-03-26T06:20:57;9.10;99.90
30206;DHT22;17010;51.306;3.150;2023-03-26T06:23:24;9.10;99.90
30206;DHT22;17010;51.306;3.150;2023-03-26T06:25:50;9.20;99.90
30206;DHT22;17010;51.306;3.150;2023-03-26T06:28:16;9.10;99.90
30206;DHT22;17010;51.306;3.150;2023-03-26T06:30:43;9.20;99.90
30206;DHT22;17010;51.306;3.150;2023-03-26T06:33:09;9.10;99.90
30206;DHT22;17010;51.306;3.150;2023-03-26T06:35:36;9.00;99.90
30206;DHT22;17010;51.306;3.150;2023-03-26T06:38:02;9.00;99.90
30206;DHT22;17010;51.306;3.150;2023-03-26T06:40:29;9.00;99.90
30206;DHT22;17010;51.306;3.150;2023-03-26T06:42:55;9.00;99.90
30206;DHT22;17010;51.306;3.150;2023-03-26T06:45:22;9.00;99.90
30206;DHT22;17010;51.306;3.150;2023-03-26T06:47:48;9.00;99.90
30206;DHT22;17010;51.306;3.150;2023-03-26T06:50:14;9.00;99.90
30206;DHT22;17010;51.306;3.150;2023-03-26T06:52:40;9.10;99.90
30206;DHT22;17010;51.306;3.150;2023-03-26T06:55:07;9.10;99.90
30206;DHT22;17010;51.306;3.150;2023-03-26T06:57:35;9.00;99.90
30206;DHT22;17010;51.306;3.150;2023-03-26T07:00:03;9.00;99.90
30206;DHT22;17010;51.306;3.150;2023-03-26T07:02:30;9.00;99.90
30206;DHT22;17010;51.306;3.150;2023-03-26T07:04:56;9.00;99.90
30206;DHT22;17010;51.306;3.150;2023-03-26T07:07:23;9.00;99.90
30206;DHT22;17010;51.306;3.150;2023-03-26T07:09:50;8.90;99.90
30206;DHT22;17010;51.306;3.150;2023-03-26T07:12:16;8.90;99.90
30206;DHT22;17010;51.306;3.150;2023-03-26T07:14:43;8.80;99.90
30206;DHT22;17010;51.306;3.150;2023-03-26T07:17:09;8.70;99.90
30206;DHT22;17010;51.306;3.150;2023-03-26T07:19:35;8.80;99.90
30206;DHT22;17010;51.306;3.150;2023-03-26T07:22:02;8.70;99.90
30206;DHT22;17010;51.306;3.150;2023-03-26T07:24:28;8.60;99.90
30206;DHT22;17010;51.306;3.150;2023-03-26T07:29:50;8.50;99.90
30206;DHT22;17010;51.306;3.150;2023-03-26T07:32:31;8.50;99.90
30206;DHT22;17010;51.306;3.150;2023-03-26T07:46:12;8.50;99.90
30206;DHT22;17010;51.306;3.150;2023-03-26T07:48:43;8.50;99.90
30206;DHT22;17010;51.306;3.150;2023-03-26T07:51:13;8.50;99.90
30206;DHT22;17010;51.306;3.150;2023-03-26T07:53:39;8.60;99.90
30206;DHT22;17010;51.306;3.150;2023-03-26T07:56:19;8.50;99.90
30206;DHT22;17010;51.306;3.150;2023-03-26T08:01:52;8.50;99.90
30206;DHT22;17010;51.306;3.150;2023-03-26T08:10:00;8.40;99.90
30206;DHT22;17010;51.306;3.150;2023-03-26T08:12:45;8.40;99.90
30206;DHT22;17010;51.306;3.150;2023-03-26T08:15:35;8.40;99.90
30206;DHT22;17010;51.306;3.150;2023-03-26T08:20:46;8.30;99.90
30206;DHT22;17010;51.306;3.150;2023-03-26T08:23:28;8.30;99.90
30206;DHT22;17010;51.306;3.150;2023-03-26T08:31:06;8.40;99.90
30206;DHT22;17010;51.306;3.150;2023-03-26T08:33:34;8.40;99.90
30206;DHT22;17010;51.306;3.150;2023-03-26T08:36:01;8.50;99.90
30206;DHT22;17010;51.306;3.150;2023-03-26T08:38:27;8.50;99.90
30206;DHT22;17010;51.306;3.150;2023-03-26T08:41:11;8.60;99.90
30206;DHT22;17010;51.306;3.150;2023-03-26T08:49:37;8.60;99.90
30206;DHT22;17010;51.306;3.150;2023-03-26T08:55:38;8.70;99.90
30206;DHT22;17010;51.306;3.150;2023-03-26T09:03:51;8.80;99.90
30206;DHT22;17010;51.306;3.150;2023-03-26T09:14:31;8.90;99.90
30206;DHT22;17010;51.306;3.150;2023-03-26T09:17:24;8.90;99.90
30206;DHT22;17010;51.306;3.150;2023-03-26T09:30:57;9.30;99.90
30206;DHT22;17010;51.306;3.150;2023-03-26T09:36:55;9.50;99.90
30206;DHT22;17010;51.306;3.150;2023-03-26T09:45:29;9.80;99.90
30206;DHT22;17010;51.306;3.150;2023-03-26T09:48:07;9.70;99.90
30206;DHT22;17010;51.306;3.150;2023-03-26T09:56:53;9.70;99.90
30206;DHT22;17010;51.306;3.150;2023-03-26T09:59:45;9.70;99.90
30206;DHT22;17010;51.306;3.150;2023-03-26T10:08:03;9.70;99.90
30206;DHT22;17010;51.306;3.150;2023-03-26T10:16:20;9.60;99.90
30206;DHT22;17010;51.306;3.150;2023-03-26T10:20:01;9.70;99.90
30206;DHT22;17010;51.306;3.150;2023-03-26T10:44:57;8.90;99.90
30206;DHT22;17010;51.306;3.150;2023-03-26T10:47:44;8.90;99.90
30206;DHT22;17010;51.306;3.150;2023-03-26T10:50:22;9.00;99.90
30206;DHT22;17010;51.306;3.150;2023-03-26T10:55:38;9.00;99.90
30206;DHT22;17010;51.306;3.150;2023-03-26T10:58:25;8.90;99.90
30206;DHT22;17010;51.306;3.150;2023-03-26T11:09:06;8.70;99.90
30206;DHT22;17010;51.306;3.150;2023-03-26T11:11:41;8.70;99.90
30206;DHT22;17010;51.306;3.150;2023-03-26T11:18:04;8.80;99.90
30206;DHT22;17010;51.306;3.150;2023-03-26T11:20:08;8.80;99.90
30206;DHT22;17010;51.306;3.150;2023-03-26T11:26:01;8.70;99.90
30206;DHT22;17010;51.306;3.150;2023-03-26T11:28:40;8.60;99.90
30206;DHT22;17010;51.306;3.150;2023-03-26T11:32:02;8.70;99.90
30206;DHT22;17010;51.306;3.150;2023-03-26T11:34:12;8.80;99.90
30206;DHT22;17010;51.306;3.150;2023-03-26T11:36:40;9.00;99.90
30206;DHT22;17010;51.306;3.150;2023-03-26T11:39:11;9.00;99.90
30206;DHT22;17010;51.306;3.150;2023-03-26T11:41:38;9.10;99.90
30206;DHT22;17010;51.306;3.150;2023-03-26T11:44:09;9.20;99.90
30206;DHT22;17010;51.306;3.150;2023-03-26T11:46:41;9.10;99.90
30206;DHT22;17010;51.306;3.150;2023-03-26T11:49:09;9.10;99.90
30206;DHT22;17010;51.306;3.150;2023-03-26T11:51:38;9.10;99.90
30206;DHT22;17010;51.306;3.150;2023-03-26T11:54:05;9.10;99.90
30206;DHT22;17010;51.306;3.150;2023-03-26T11:56:47;9.20;99.90
30206;DHT22;17010;51.306;3.150;2023-03-26T11:59:16;9.30;99.90
30206;DHT22;17010;51.306;3.150;2023-03-26T12:01:51;9.20;99.90
30206;DHT22;17010;51.306;3.150;2023-03-26T12:04:38;9.10;99.90
30206;DHT22;17010;51.306;3.150;2023-03-26T12:12:19;8.80;99.90
30206;DHT22;17010;51.306;3.150;2023-03-26T12:14:46;8.80;99.90
30206;DHT22;17010;51.306;3.150;2023-03-26T12:17:23;8.80;99.90
30206;DHT22;17010;51.306;3.150;2023-03-26T12:19:50;8.70;99.90
30206;DHT22;17010;51.306;3.150;2023-03-26T12:25:16;8.70;99.90
30206;DHT22;17010;51.306;3.150;2023-03-26T12:30:21;8.80;99.90
30206;DHT22;17010;51.306;3.150;2023-03-26T12:32:49;8.90;99.90
30206;DHT22;17010;51.306;3.150;2023-03-26T12:35:17;9.00;99.90
30206;DHT22;17010;51.306;3.150;2023-03-26T12:37:45;9.00;99.90
30206;DHT22;17010;51.306;3.150;2023-03-26T12:42:53;9.00;99.90
30206;DHT22;17010;51.306;3.150;2023-03-26T12:45:20;9.00;99.90
30206;DHT22;17010;51.306;3.150;2023-03-26T12:47:48;9.10;99.90
30206;DHT22;17010;51.306;3.150;2023-03-26T12:50:15;9.30;99.90
30206;DHT22;17010;51.306;3.150;2023-03-26T12:56:00;9.20;99.90
30206;DHT22;17010;51.306;3.150;2023-03-26T12:58:44;9.10;99.90
30206;DHT22;17010;51.306;3.150;2023-03-26T13:14:50;8.80;99.90
30206;DHT22;17010;51.306;3.150;2023-03-26T13:21:03;8.90;99.90
30206;DHT22;17010;51.306;3.150;2023-03-26T13:23:50;9.00;99.90
30206;DHT22;17010;51.306;3.150;2023-03-26T13:42:43;8.50;99.90
30206;DHT22;17010;51.306;3.150;2023-03-26T13:53:24;8.30;99.90
30206;DHT22;17010;51.306;3.150;2023-03-26T13:55:56;8.30;99.90
30206;DHT22;17010;51.306;3.150;2023-03-26T13:58:25;8.30;99.90
30206;DHT22;17010;51.306;3.150;2023-03-26T14:01:48;8.20;99.90
30206;DHT22;17010;51.306;3.150;2023-03-26T14:04:25;8.20;99.90
30206;DHT22;17010;51.306;3.150;2023-03-26T14:35:35;7.90;99.90
30206;DHT22;17010;51.306;3.150;2023-03-26T15:54:15;7.70;99.90
30206;DHT22;17010;51.306;3.150;2023-03-26T16:09:57;7.50;99.90
30206;DHT22;17010;51.306;3.150;2023-03-26T16:12:32;7.50;99.90
30206;DHT22;17010;51.306;3.150;2023-03-26T16:28:34;7.60;99.90
30206;DHT22;17010;51.306;3.150;2023-03-26T16:36:42;7.30;99.90
30206;DHT22;17010;51.306;3.150;2023-03-26T16:39:22;7.30;99.90
30206;DHT22;17010;51.306;3.150;2023-03-26T16:41:58;7.10;99.90
30206;DHT22;17010;51.306;3.150;2023-03-26T16:44:35;7.10;99.90
30206;DHT22;17010;51.306;3.150;2023-03-26T16:47:28;7.10;99.90
30206;DHT22;17010;51.306;3.150;2023-03-26T16:52:49;7.20;99.90
30206;DHT22;17010;51.306;3.150;2023-03-26T16:55:40;7.20;99.90
30206;DHT22;17010;51.306;3.150;2023-03-26T17:44:36;6.90;99.90
30206;DHT22;17010;51.306;3.150;2023-03-26T17:47:04;6.80;99.90
30206;DHT22;17010;51.306;3.150;2023-03-26T17:49:38;6.80;99.90
30206;DHT22;17010;51.306;3.150;2023-03-26T17:52:18;6.70;99.90
30206;DHT22;17010;51.306;3.150;2023-03-26T17:54:48;6.70;99.90
30206;DHT22;17010;51.306;3.150;2023-03-26T18:28:40;6.70;99.90
30206;DHT22;17010;51.306;3.150;2023-03-26T18:36:19;6.80;99.90
30206;DHT22;17010;51.306;3.150;2023-03-26T18:38:45;6.70;99.90
30206;DHT22;17010;51.306;3.150;2023-03-26T18:41:24;6.70;99.90
30206;DHT22;17010;51.306;3.150;2023-03-26T18:46:28;6.50;99.90
30206;DHT22;17010;51.306;3.150;2023-03-26T18:56:45;6.50;99.90
30206;DHT22;17010;51.306;3.150;2023-03-26T18:59:27;6.40;99.90
30206;DHT22;17010;51.306;3.150;2023-03-26T19:02:02;6.50;99.90
30206;DHT22;17010;51.306;3.150;2023-03-26T19:04:30;6.50;99.90
30206;DHT22;17010;51.306;3.150;2023-03-26T19:06:59;6.60;99.90
30206;DHT22;17010;51.306;3.150;2023-03-26T19:09:26;6.60;99.90
30206;DHT22;17010;51.306;3.150;2023-03-26T19:12:03;6.60;99.90
30206;DHT22;17010;51.306;3.150;2023-03-26T19:14:30;6.70;99.90
30206;DHT22;17010;51.306;3.150;2023-03-26T19:17:02;6.60;99.90
30206;DHT22;17010;51.306;3.150;2023-03-26T19:24:41;6.60;99.90
30206;DHT22;17010;51.306;3.150;2023-03-26T19:27:07;6.70;99.90
30206;DHT22;17010;51.306;3.150;2023-03-26T19:37:25;6.50;99.90
30206;DHT22;17010;51.306;3.150;2023-03-26T19:39:53;6.60;99.90
30206;DHT22;17010;51.306;3.150;2023-03-26T19:42:22;6.60;99.90
30206;DHT22;17010;51.306;3.150;2023-03-26T19:47:30;6.50;99.90
30206;DHT22;17010;51.306;3.150;2023-03-26T19:50:19;6.50;99.90
30206;DHT22;17010;51.306;3.150;2023-03-26T20:11:36;6.40;99.90
30206;DHT22;17010;51.306;3.150;2023-03-26T20:14:15;6.30;99.90
30206;DHT22;17010;51.306;3.150;2023-03-26T20:16:42;6.30;99.90
30206;DHT22;17010;51.306;3.150;2023-03-26T20:19:09;6.30;99.90
30206;DHT22;17010;51.306;3.150;2023-03-26T20:21:35;6.30;99.90
30206;DHT22;17010;51.306;3.150;2023-03-26T20:24:14;6.40;99.90
30206;DHT22;17010;51.306;3.150;2023-03-26T20:29:09;6.20;99.90
30206;DHT22;17010;51.306;3.150;2023-03-26T20:31:36;6.00;99.90
30206;DHT22;17010;51.306;3.150;2023-03-26T20:34:04;6.00;99.90
30206;DHT22;17010;51.306;3.150;2023-03-26T20:36:32;5.90;99.90
30206;DHT22;17010;51.306;3.150;2023-03-26T20:41:35;5.90;99.90
30206;DHT22;17010;51.306;3.150;2023-03-26T20:44:11;5.90;99.90
30206;DHT22;17010;51.306;3.150;2023-03-26T20:46:38;5.90;99.90
30206;DHT22;17010;51.306;3.150;2023-03-26T20:49:04;5.90;99.90
30206;DHT22;17010;51.306;3.150;2023-03-26T20:51:31;5.90;99.90
30206;DHT22;17010;51.306;3.150;2023-03-26T20:53:57;6.00;99.90
30206;DHT22;17010;51.306;3.150;2023-03-26T20:56:25;6.10;99.90
30206;DHT22;17010;51.306;3.150;2023-03-26T20:58:51;6.20;99.90
30206;DHT22;17010;51.306;3.150;2023-03-26T21:01:19;6.30;99.90
30206;DHT22;17010;51.306;3.150;2023-03-26T21:03:45;6.30;99.90
30206;DHT22;17010;51.306;3.150;2023-03-26T21:06:12;6.30;99.90
30206;DHT22;17010;51.306;3.150;2023-03-26T21:08:39;6.30;99.90
30206;DHT22;17010;51.306;3.150;2023-03-26T21:13:46;6.50;99.90
30206;DHT22;17010;51.306;3.150;2023-03-26T21:16:22;6.50;99.90
30206;DHT22;17010;51.306;3.150;2023-03-26T21:18:48;6.60;99.90
30206;DHT22;17010;51.306;3.150;2023-03-26T21:24:09;6.50;99.90
30206;DHT22;17010;51.306;3.150;2023-03-26T21:29:15;6.40;99.90
30206;DHT22;17010;51.306;3.150;2023-03-26T21:31:42;6.40;99.90
30206;DHT22;17010;51.306;3.150;2023-03-26T21:34:10;6.50;99.90
30206;DHT22;17010;51.306;3.150;2023-03-26T21:36:38;6.50;99.90
30206;DHT22;17010;51.306;3.150;2023-03-26T21:39:05;6.40;99.90
30206;DHT22;17010;51.306;3.150;2023-03-26T21:44:06;6.30;99.90
30206;DHT22;17010;51.306;3.150;2023-03-26T21:46:34;6.30;99.90
30206;DHT22;17010;51.306;3.150;2023-03-26T21:49:00;6.30;99.90
30206;DHT22;17010;51.306;3.150;2023-03-26T21:51:28;6.30;99.90
30206;DHT22;17010;51.306;3.150;2023-03-26T21:53:55;6.30;99.90
30206;DHT22;17010;51.306;3.150;2023-03-26T21:59:35;5.90;99.90
30206;DHT22;17010;51.306;3.150;2023-03-26T22:08:37;5.80;99.90
30206;DHT22;17010;51.306;3.150;2023-03-26T22:11:05;5.90;99.90
30206;DHT22;17010;51.306;3.150;2023-03-26T22:13:31;5.90;99.90
30206;DHT22;17010;51.306;3.150;2023-03-26T22:18:37;6.00;99.90
30206;DHT22;17010;51.306;3.150;2023-03-26T22:21:03;5.90;99.90
30206;DHT22;17010;51.306;3.150;2023-03-26T22:23:30;5.80;99.90
30206;DHT22;17010;51.306;3.150;2023-03-26T22:26:04;5.70;99.90
30206;DHT22;17010;51.306;3.150;2023-03-26T22:28:31;5.70;99.90
30206;DHT22;17010;51.306;3.150;2023-03-26T22:36:10;5.70;99.90
30206;DHT22;17010;51.306;3.150;2023-03-26T22:38:37;5.60;99.90
30206;DHT22;17010;51.306;3.150;2023-03-26T22:41:04;5.60;99.90
30206;DHT22;17010;51.306;3.150;2023-03-26T22:43:30;5.60;99.90
30206;DHT22;17010;51.306;3.150;2023-03-26T22:45:56;5.60;99.90
30206;DHT22;17010;51.306;3.150;2023-03-26T22:48:22;5.70;99.90
30206;DHT22;17010;51.306;3.150;2023-03-26T22:51:00;5.80;99.90
30206;DHT22;17010;51.306;3.150;2023-03-26T22:53:27;5.80;99.90
30206;DHT22;17010;51.306;3.150;2023-03-26T22:55:53;5.90;99.90
30206;DHT22;17010;51.306;3.150;2023-03-26T22:58:20;6.00;99.90
30206;DHT22;17010;51.306;3.150;2023-03-26T23:00:47;6.10;99.90
30206;DHT22;17010;51.306;3.150;2023-03-26T23:03:18;6.20;99.90
30206;DHT22;17010;51.306;3.150;2023-03-26T23:05:56;6.30;99.90
30206;DHT22;17010;51.306;3.150;2023-03-26T23:08:23;6.30;99.90
30206;DHT22;17010;51.306;3.150;2023-03-26T23:10:50;6.30;99.90
30206;DHT22;17010;51.306;3.150;2023-03-26T23:13:20;6.20;99.90
30206;DHT22;17010;51.306;3.150;2023-03-26T23:15:54;6.30;99.90
30206;DHT22;17010;51.306;3.150;2023-03-26T23:18:21;6.20;99.90
30206;DHT22;17010;51.306;3.150;2023-03-26T23:23:29;6.20;99.90
30206;DHT22;17010;51.306;3.150;2023-03-26T23:25:57;6.30;99.90
30206;DHT22;17010;51.306;3.150;2023-03-26T23:28:28;6.30;99.90
30206;DHT22;17010;51.306;3.150;2023-03-26T23:31:03;6.20;99.90
30206;DHT22;17010;51.306;3.150;2023-03-26T23:33:31;6.30;99.90
30206;DHT22;17010;51.306;3.150;2023-03-26T23:36:01;6.30;99.90
30206;DHT22;17010;51.306;3.150;2023-03-26T23:38:30;6.30;99.90
30206;DHT22;17010;51.306;3.150;2023-03-26T23:40:57;6.40;99.90
30206;DHT22;17010;51.306;3.150;2023-03-26T23:43:25;6.40;99.90
30206;DHT22;17010;51.306;3.150;2023-03-26T23:45:51;6.40;99.90
30206;DHT22;17010;51.306;3.150;2023-03-26T23:48:20;6.40;99.90
30206;DHT22;17010;51.306;3.150;2023-03-26T23:50:58;6.40;99.90
30206;DHT22;17010;51.306;3.150;2023-03-26T23:53:27;6.50;99.90
30206;DHT22;17010;51.306;3.150;2023-03-26T23:55:54;6.40;99.90
30206;DHT22;17010;51.306;3.150;2023-03-26T23:58:21;6.30;99.90
